sensor_id;sensor_type;location;lat;lon;timestamp;P1;durP1;ratioP1;P2;durP2;ratioP2
7426;SDS011;3755;59.316;18.092;2023-05-10T00:01:57;8.65;;;4.85;;
7426;SDS011;3755;59.316;18.092;2023-05-10T00:04:25;10.85;;;5.03;;
7426;SDS011;3755;59.316;18.092;2023-05-10T00:06:55;12.02;;;5.60;;
7426;SDS011;3755;59.316;18.092;2023-05-10T00:09:22;12.38;;;5.10;;
7426;SDS011;3755;59.316;18.092;2023-05-10T00:11:50;11.07;;;5.30;;
7426;SDS011;3755;59.316;18.092;2023-05-10T00:14:18;8.07;;;4.93;;
7426;SDS011;3755;59.316;18.092;2023-05-10T00:16:46;9.93;;;5.30;;
7426;SDS011;3755;59.316;18.092;2023-05-10T00:19:13;12.02;;;5.50;;
7426;SDS011;3755;59.316;18.092;2023-05-10T00:21:41;9.20;;;4.40;;
7426;SDS011;3755;59.316;18.092;2023-05-10T00:24:10;9.80;;;4.80;;
7426;SDS011;3755;59.316;18.092;2023-05-10T00:26:38;9.30;;;5.43;;
7426;SDS011;3755;59.316;18.092;2023-05-10T00:29:06;7.75;;;5.03;;
7426;SDS011;3755;59.316;18.092;2023-05-10T00:31:33;7.43;;;5.35;;
7426;SDS011;3755;59.316;18.092;2023-05-10T00:34:01;11.15;;;5.53;;
7426;SDS011;3755;59.316;18.092;2023-05-10T00:36:28;7.93;;;5.40;;
7426;SDS011;3755;59.316;18.092;2023-05-10T00:38:56;9.68;;;5.38;;
7426;SDS011;3755;59.316;18.092;2023-05-10T00:41:25;11.13;;;5.40;;
7426;SDS011;3755;59.316;18.092;2023-05-10T00:43:52;10.82;;;5.72;;
7426;SDS011;3755;59.316;18.092;2023-05-10T00:46:19;12.90;;;5.55;;
7426;SDS011;3755;59.316;18.092;2023-05-10T00:48:47;11.38;;;5.03;;
7426;SDS011;3755;59.316;18.092;2023-05-10T00:51:15;9.80;;;5.67;;
7426;SDS011;3755;59.316;18.092;2023-05-10T00:53:44;14.90;;;5.40;;
7426;SDS011;3755;59.316;18.092;2023-05-10T00:56:13;10.55;;;5.20;;
7426;SDS011;3755;59.316;18.092;2023-05-10T00:58:42;8.45;;;5.57;;
7426;SDS011;3755;59.316;18.092;2023-05-10T01:01:10;10.15;;;5.80;;
7426;SDS011;3755;59.316;18.092;2023-05-10T01:03:38;9.43;;;5.35;;
7426;SDS011;3755;59.316;18.092;2023-05-10T01:06:06;14.83;;;5.53;;
7426;SDS011;3755;59.316;18.092;2023-05-10T01:08:35;7.25;;;5.28;;
7426;SDS011;3755;59.316;18.092;2023-05-10T01:11:03;8.48;;;5.60;;
7426;SDS011;3755;59.316;18.092;2023-05-10T01:13:31;16.80;;;6.65;;
7426;SDS011;3755;59.316;18.092;2023-05-10T01:16:02;17.75;;;6.88;;
7426;SDS011;3755;59.316;18.092;2023-05-10T01:18:32;19.92;;;7.57;;
7426;SDS011;3755;59.316;18.092;2023-05-10T01:21:04;11.88;;;5.40;;
7426;SDS011;3755;59.316;18.092;2023-05-10T01:23:56;8.95;;;5.45;;
7426;SDS011;3755;59.316;18.092;2023-05-10T01:26:52;8.75;;;5.43;;
7426;SDS011;3755;59.316;18.092;2023-05-10T01:30:01;8.85;;;5.57;;
7426;SDS011;3755;59.316;18.092;2023-05-10T01:32:43;9.27;;;6.20;;
7426;SDS011;3755;59.316;18.092;2023-05-10T01:35:17;13.75;;;5.82;;
7426;SDS011;3755;59.316;18.092;2023-05-10T01:37:50;9.15;;;6.07;;
7426;SDS011;3755;59.316;18.092;2023-05-10T01:40:23;11.00;;;6.27;;
7426;SDS011;3755;59.316;18.092;2023-05-10T01:45:45;13.13;;;6.43;;
7426;SDS011;3755;59.316;18.092;2023-05-10T01:48:18;9.07;;;5.75;;
7426;SDS011;3755;59.316;18.092;2023-05-10T01:50:47;8.13;;;5.70;;
7426;SDS011;3755;59.316;18.092;2023-05-10T01:53:18;9.50;;;6.10;;
7426;SDS011;3755;59.316;18.092;2023-05-10T01:55:47;12.40;;;6.78;;
7426;SDS011;3755;59.316;18.092;2023-05-10T01:58:18;8.10;;;6.03;;
7426;SDS011;3755;59.316;18.092;2023-05-10T02:00:49;9.32;;;6.30;;
7426;SDS011;3755;59.316;18.092;2023-05-10T02:03:20;9.57;;;6.35;;
7426;SDS011;3755;59.316;18.092;2023-05-10T02:05:49;14.70;;;6.60;;
7426;SDS011;3755;59.316;18.092;2023-05-10T02:08:18;10.40;;;6.57;;
7426;SDS011;3755;59.316;18.092;2023-05-10T02:10:47;11.52;;;6.07;;
7426;SDS011;3755;59.316;18.092;2023-05-10T02:13:18;11.00;;;6.25;;
7426;SDS011;3755;59.316;18.092;2023-05-10T02:15:47;10.60;;;5.80;;
7426;SDS011;3755;59.316;18.092;2023-05-10T02:18:15;11.02;;;6.03;;
7426;SDS011;3755;59.316;18.092;2023-05-10T02:20:46;8.43;;;5.70;;
7426;SDS011;3755;59.316;18.092;2023-05-10T02:23:14;8.73;;;5.68;;
7426;SDS011;3755;59.316;18.092;2023-05-10T02:25:43;9.50;;;5.80;;
7426;SDS011;3755;59.316;18.092;2023-05-10T02:28:12;10.02;;;5.88;;
7426;SDS011;3755;59.316;18.092;2023-05-10T02:30:40;14.25;;;6.15;;
7426;SDS011;3755;59.316;18.092;2023-05-10T02:33:09;10.57;;;6.45;;
7426;SDS011;3755;59.316;18.092;2023-05-10T02:35:38;13.83;;;6.00;;
7426;SDS011;3755;59.316;18.092;2023-05-10T02:38:07;9.35;;;6.18;;
7426;SDS011;3755;59.316;18.092;2023-05-10T02:40:36;10.50;;;6.03;;
7426;SDS011;3755;59.316;18.092;2023-05-10T02:43:05;12.32;;;5.85;;
7426;SDS011;3755;59.316;18.092;2023-05-10T02:45:35;11.07;;;5.72;;
7426;SDS011;3755;59.316;18.092;2023-05-10T02:48:04;9.67;;;5.47;;
7426;SDS011;3755;59.316;18.092;2023-05-10T02:50:33;10.73;;;6.20;;
7426;SDS011;3755;59.316;18.092;2023-05-10T02:53:03;14.60;;;6.25;;
7426;SDS011;3755;59.316;18.092;2023-05-10T02:55:37;9.80;;;6.97;;
7426;SDS011;3755;59.316;18.092;2023-05-10T02:58:07;13.00;;;6.23;;
7426;SDS011;3755;59.316;18.092;2023-05-10T03:00:34;9.43;;;6.50;;
7426;SDS011;3755;59.316;18.092;2023-05-10T03:03:01;7.70;;;5.80;;
7426;SDS011;3755;59.316;18.092;2023-05-10T03:05:29;7.97;;;5.78;;
7426;SDS011;3755;59.316;18.092;2023-05-10T03:07:56;12.90;;;5.80;;
7426;SDS011;3755;59.316;18.092;2023-05-10T03:10:27;9.55;;;5.90;;
7426;SDS011;3755;59.316;18.092;2023-05-10T03:13:03;9.13;;;5.88;;
7426;SDS011;3755;59.316;18.092;2023-05-10T03:15:38;12.57;;;6.13;;
7426;SDS011;3755;59.316;18.092;2023-05-10T03:18:15;21.70;;;6.82;;
7426;SDS011;3755;59.316;18.092;2023-05-10T03:20:47;11.40;;;5.97;;
7426;SDS011;3755;59.316;18.092;2023-05-10T03:23:20;10.52;;;6.05;;
7426;SDS011;3755;59.316;18.092;2023-05-10T03:25:51;11.60;;;6.40;;
7426;SDS011;3755;59.316;18.092;2023-05-10T03:28:20;11.15;;;5.85;;
7426;SDS011;3755;59.316;18.092;2023-05-10T03:30:48;10.68;;;6.68;;
7426;SDS011;3755;59.316;18.092;2023-05-10T03:33:18;14.77;;;6.28;;
7426;SDS011;3755;59.316;18.092;2023-05-10T03:35:46;8.20;;;6.47;;
7426;SDS011;3755;59.316;18.092;2023-05-10T03:38:13;9.88;;;5.55;;
7426;SDS011;3755;59.316;18.092;2023-05-10T03:40:40;8.40;;;5.38;;
7426;SDS011;3755;59.316;18.092;2023-05-10T03:43:09;10.95;;;5.88;;
7426;SDS011;3755;59.316;18.092;2023-05-10T03:45:36;10.88;;;6.20;;
7426;SDS011;3755;59.316;18.092;2023-05-10T03:48:03;11.85;;;5.90;;
7426;SDS011;3755;59.316;18.092;2023-05-10T03:50:31;10.65;;;6.10;;
7426;SDS011;3755;59.316;18.092;2023-05-10T03:52:59;8.45;;;5.32;;
7426;SDS011;3755;59.316;18.092;2023-05-10T03:55:27;13.80;;;5.90;;
7426;SDS011;3755;59.316;18.092;2023-05-10T03:57:54;10.98;;;5.75;;
7426;SDS011;3755;59.316;18.092;2023-05-10T04:00:23;13.80;;;5.95;;
7426;SDS011;3755;59.316;18.092;2023-05-10T04:02:51;10.80;;;5.93;;
7426;SDS011;3755;59.316;18.092;2023-05-10T04:05:18;14.18;;;5.82;;
7426;SDS011;3755;59.316;18.092;2023-05-10T04:07:45;9.43;;;5.47;;
7426;SDS011;3755;59.316;18.092;2023-05-10T04:10:14;9.27;;;5.93;;
7426;SDS011;3755;59.316;18.092;2023-05-10T04:12:42;9.48;;;5.88;;
7426;SDS011;3755;59.316;18.092;2023-05-10T04:15:10;9.32;;;5.47;;
7426;SDS011;3755;59.316;18.092;2023-05-10T04:17:39;10.40;;;5.60;;
7426;SDS011;3755;59.316;18.092;2023-05-10T04:20:06;13.20;;;5.97;;
7426;SDS011;3755;59.316;18.092;2023-05-10T04:22:34;10.77;;;4.75;;
7426;SDS011;3755;59.316;18.092;2023-05-10T04:25:02;15.52;;;5.65;;
7426;SDS011;3755;59.316;18.092;2023-05-10T04:27:29;10.68;;;5.45;;
7426;SDS011;3755;59.316;18.092;2023-05-10T04:29:57;10.50;;;5.70;;
7426;SDS011;3755;59.316;18.092;2023-05-10T04:32:24;10.02;;;5.57;;
7426;SDS011;3755;59.316;18.092;2023-05-10T04:34:53;10.13;;;5.28;;
7426;SDS011;3755;59.316;18.092;2023-05-10T04:37:20;9.48;;;5.28;;
7426;SDS011;3755;59.316;18.092;2023-05-10T04:39:48;8.45;;;5.35;;
7426;SDS011;3755;59.316;18.092;2023-05-10T04:42:15;14.75;;;5.50;;
7426;SDS011;3755;59.316;18.092;2023-05-10T04:44:42;8.52;;;5.32;;
7426;SDS011;3755;59.316;18.092;2023-05-10T04:47:10;8.23;;;4.78;;
7426;SDS011;3755;59.316;18.092;2023-05-10T04:49:38;11.30;;;4.65;;
7426;SDS011;3755;59.316;18.092;2023-05-10T04:52:07;11.55;;;5.50;;
7426;SDS011;3755;59.316;18.092;2023-05-10T04:54:34;12.43;;;5.07;;
7426;SDS011;3755;59.316;18.092;2023-05-10T04:57:01;14.30;;;4.45;;
7426;SDS011;3755;59.316;18.092;2023-05-10T04:59:29;17.63;;;5.38;;
7426;SDS011;3755;59.316;18.092;2023-05-10T05:01:56;12.27;;;5.00;;
7426;SDS011;3755;59.316;18.092;2023-05-10T05:04:23;10.00;;;5.03;;
7426;SDS011;3755;59.316;18.092;2023-05-10T05:06:51;10.20;;;4.55;;
7426;SDS011;3755;59.316;18.092;2023-05-10T05:09:19;9.13;;;4.43;;
7426;SDS011;3755;59.316;18.092;2023-05-10T05:11:47;9.75;;;4.68;;
7426;SDS011;3755;59.316;18.092;2023-05-10T05:14:14;7.97;;;4.47;;
7426;SDS011;3755;59.316;18.092;2023-05-10T05:16:41;10.02;;;5.15;;
7426;SDS011;3755;59.316;18.092;2023-05-10T05:19:09;9.27;;;5.00;;
7426;SDS011;3755;59.316;18.092;2023-05-10T05:21:36;6.50;;;3.92;;
7426;SDS011;3755;59.316;18.092;2023-05-10T05:24:04;6.88;;;4.15;;
7426;SDS011;3755;59.316;18.092;2023-05-10T05:26:33;12.02;;;4.35;;
7426;SDS011;3755;59.316;18.092;2023-05-10T05:29:01;12.55;;;4.45;;
7426;SDS011;3755;59.316;18.092;2023-05-10T05:31:29;6.80;;;4.07;;
7426;SDS011;3755;59.316;18.092;2023-05-10T05:33:56;6.03;;;3.95;;
7426;SDS011;3755;59.316;18.092;2023-05-10T05:36:23;9.10;;;4.50;;
7426;SDS011;3755;59.316;18.092;2023-05-10T05:38:51;7.95;;;4.10;;
7426;SDS011;3755;59.316;18.092;2023-05-10T05:41:18;17.73;;;4.75;;
7426;SDS011;3755;59.316;18.092;2023-05-10T05:43:48;7.28;;;4.38;;
7426;SDS011;3755;59.316;18.092;2023-05-10T05:46:16;12.05;;;4.72;;
7426;SDS011;3755;59.316;18.092;2023-05-10T05:48:43;7.43;;;4.28;;
7426;SDS011;3755;59.316;18.092;2023-05-10T05:51:11;10.13;;;3.92;;
7426;SDS011;3755;59.316;18.092;2023-05-10T05:53:38;9.05;;;3.67;;
7426;SDS011;3755;59.316;18.092;2023-05-10T05:56:05;39.15;;;7.82;;
7426;SDS011;3755;59.316;18.092;2023-05-10T05:58:34;21.35;;;4.32;;
7426;SDS011;3755;59.316;18.092;2023-05-10T06:01:03;10.77;;;3.92;;
7426;SDS011;3755;59.316;18.092;2023-05-10T06:03:30;8.27;;;3.53;;
7426;SDS011;3755;59.316;18.092;2023-05-10T06:05:57;9.40;;;4.28;;
7426;SDS011;3755;59.316;18.092;2023-05-10T06:08:25;8.88;;;3.88;;
7426;SDS011;3755;59.316;18.092;2023-05-10T06:10:52;8.98;;;3.38;;
7426;SDS011;3755;59.316;18.092;2023-05-10T06:13:19;9.10;;;3.60;;
7426;SDS011;3755;59.316;18.092;2023-05-10T06:15:47;16.33;;;4.63;;
7426;SDS011;3755;59.316;18.092;2023-05-10T06:18:16;6.90;;;3.83;;
7426;SDS011;3755;59.316;18.092;2023-05-10T06:20:43;9.85;;;4.18;;
7426;SDS011;3755;59.316;18.092;2023-05-10T06:23:11;16.55;;;3.95;;
7426;SDS011;3755;59.316;18.092;2023-05-10T06:25:38;10.13;;;4.18;;
7426;SDS011;3755;59.316;18.092;2023-05-10T06:28:06;9.65;;;4.25;;
7426;SDS011;3755;59.316;18.092;2023-05-10T06:30:33;10.77;;;4.20;;
7426;SDS011;3755;59.316;18.092;2023-05-10T06:33:02;6.00;;;3.78;;
7426;SDS011;3755;59.316;18.092;2023-05-10T06:35:33;7.47;;;3.75;;
7426;SDS011;3755;59.316;18.092;2023-05-10T06:38:00;10.82;;;4.13;;
7426;SDS011;3755;59.316;18.092;2023-05-10T06:40:27;5.53;;;3.28;;
7426;SDS011;3755;59.316;18.092;2023-05-10T06:42:55;24.45;;;6.13;;
7426;SDS011;3755;59.316;18.092;2023-05-10T06:45:22;7.50;;;3.90;;
7426;SDS011;3755;59.316;18.092;2023-05-10T06:47:50;22.35;;;5.53;;
7426;SDS011;3755;59.316;18.092;2023-05-10T06:50:17;14.57;;;4.28;;
7426;SDS011;3755;59.316;18.092;2023-05-10T06:52:46;7.55;;;3.72;;
7426;SDS011;3755;59.316;18.092;2023-05-10T06:55:14;7.40;;;3.83;;
7426;SDS011;3755;59.316;18.092;2023-05-10T06:57:42;14.35;;;3.80;;
7426;SDS011;3755;59.316;18.092;2023-05-10T07:00:09;10.27;;;4.07;;
7426;SDS011;3755;59.316;18.092;2023-05-10T07:02:37;7.90;;;3.50;;
7426;SDS011;3755;59.316;18.092;2023-05-10T07:05:05;9.48;;;3.40;;
7426;SDS011;3755;59.316;18.092;2023-05-10T07:07:33;8.68;;;3.55;;
7426;SDS011;3755;59.316;18.092;2023-05-10T07:10:02;8.70;;;3.15;;
7426;SDS011;3755;59.316;18.092;2023-05-10T07:12:30;12.70;;;3.85;;
7426;SDS011;3755;59.316;18.092;2023-05-10T07:14:58;14.85;;;4.07;;
7426;SDS011;3755;59.316;18.092;2023-05-10T07:17:25;8.23;;;3.40;;
7426;SDS011;3755;59.316;18.092;2023-05-10T07:19:53;12.32;;;3.83;;
7426;SDS011;3755;59.316;18.092;2023-05-10T07:22:20;16.60;;;3.47;;
7426;SDS011;3755;59.316;18.092;2023-05-10T07:24:47;9.68;;;3.60;;
7426;SDS011;3755;59.316;18.092;2023-05-10T07:27:16;9.77;;;3.55;;
7426;SDS011;3755;59.316;18.092;2023-05-10T07:29:43;9.13;;;3.47;;
7426;SDS011;3755;59.316;18.092;2023-05-10T07:32:11;7.35;;;3.53;;
7426;SDS011;3755;59.316;18.092;2023-05-10T07:34:38;10.23;;;3.72;;
7426;SDS011;3755;59.316;18.092;2023-05-10T07:37:06;9.38;;;3.20;;
7426;SDS011;3755;59.316;18.092;2023-05-10T07:39:37;5.05;;;3.30;;
7426;SDS011;3755;59.316;18.092;2023-05-10T07:42:04;9.38;;;3.47;;
7426;SDS011;3755;59.316;18.092;2023-05-10T07:44:34;11.00;;;3.38;;
7426;SDS011;3755;59.316;18.092;2023-05-10T07:47:01;11.90;;;4.28;;
7426;SDS011;3755;59.316;18.092;2023-05-10T07:49:29;10.40;;;3.90;;
7426;SDS011;3755;59.316;18.092;2023-05-10T07:51:56;10.00;;;3.70;;
7426;SDS011;3755;59.316;18.092;2023-05-10T07:54:23;6.55;;;3.08;;
7426;SDS011;3755;59.316;18.092;2023-05-10T07:56:51;8.63;;;3.65;;
7426;SDS011;3755;59.316;18.092;2023-05-10T07:59:19;8.00;;;3.47;;
7426;SDS011;3755;59.316;18.092;2023-05-10T08:01:48;14.10;;;4.55;;
7426;SDS011;3755;59.316;18.092;2023-05-10T08:04:16;6.25;;;3.55;;
7426;SDS011;3755;59.316;18.092;2023-05-10T08:06:43;5.22;;;3.10;;
7426;SDS011;3755;59.316;18.092;2023-05-10T08:09:11;9.88;;;3.50;;
7426;SDS011;3755;59.316;18.092;2023-05-10T08:11:38;8.95;;;3.72;;
7426;SDS011;3755;59.316;18.092;2023-05-10T08:14:05;6.45;;;3.35;;
7426;SDS011;3755;59.316;18.092;2023-05-10T08:16:33;7.07;;;2.90;;
7426;SDS011;3755;59.316;18.092;2023-05-10T08:19:02;10.50;;;3.00;;
7426;SDS011;3755;59.316;18.092;2023-05-10T08:21:29;6.63;;;3.60;;
7426;SDS011;3755;59.316;18.092;2023-05-10T08:23:57;6.78;;;3.40;;
7426;SDS011;3755;59.316;18.092;2023-05-10T08:26:24;5.47;;;2.92;;
7426;SDS011;3755;59.316;18.092;2023-05-10T08:28:51;6.45;;;3.10;;
7426;SDS011;3755;59.316;18.092;2023-05-10T08:31:19;3.75;;;3.05;;
7426;SDS011;3755;59.316;18.092;2023-05-10T08:33:46;4.57;;;2.92;;
7426;SDS011;3755;59.316;18.092;2023-05-10T08:36:15;6.47;;;3.40;;
7426;SDS011;3755;59.316;18.092;2023-05-10T08:38:46;6.82;;;3.10;;
7426;SDS011;3755;59.316;18.092;2023-05-10T08:41:14;4.63;;;3.20;;
7426;SDS011;3755;59.316;18.092;2023-05-10T08:43:41;7.80;;;3.38;;
7426;SDS011;3755;59.316;18.092;2023-05-10T08:46:11;6.97;;;2.97;;
7426;SDS011;3755;59.316;18.092;2023-05-10T08:48:43;10.65;;;3.20;;
7426;SDS011;3755;59.316;18.092;2023-05-10T08:51:12;5.03;;;2.72;;
7426;SDS011;3755;59.316;18.092;2023-05-10T08:53:44;7.95;;;3.33;;
7426;SDS011;3755;59.316;18.092;2023-05-10T08:56:11;9.80;;;3.60;;
7426;SDS011;3755;59.316;18.092;2023-05-10T08:58:40;5.22;;;3.17;;
7426;SDS011;3755;59.316;18.092;2023-05-10T09:01:08;5.70;;;3.30;;
7426;SDS011;3755;59.316;18.092;2023-05-10T09:03:38;9.20;;;3.85;;
7426;SDS011;3755;59.316;18.092;2023-05-10T09:06:05;7.45;;;3.05;;
7426;SDS011;3755;59.316;18.092;2023-05-10T09:08:34;9.65;;;3.67;;
7426;SDS011;3755;59.316;18.092;2023-05-10T09:11:06;8.55;;;3.67;;
7426;SDS011;3755;59.316;18.092;2023-05-10T09:13:35;14.85;;;3.80;;
7426;SDS011;3755;59.316;18.092;2023-05-10T09:16:03;14.38;;;3.90;;
7426;SDS011;3755;59.316;18.092;2023-05-10T09:18:30;11.50;;;3.83;;
7426;SDS011;3755;59.316;18.092;2023-05-10T09:20:58;7.60;;;3.42;;
7426;SDS011;3755;59.316;18.092;2023-05-10T09:23:25;9.10;;;3.13;;
7426;SDS011;3755;59.316;18.092;2023-05-10T09:26:05;7.88;;;3.40;;
7426;SDS011;3755;59.316;18.092;2023-05-10T09:28:32;6.85;;;3.47;;
7426;SDS011;3755;59.316;18.092;2023-05-10T09:31:00;8.82;;;3.20;;
7426;SDS011;3755;59.316;18.092;2023-05-10T09:33:27;10.13;;;3.10;;
7426;SDS011;3755;59.316;18.092;2023-05-10T09:35:55;5.25;;;3.45;;
7426;SDS011;3755;59.316;18.092;2023-05-10T09:38:35;7.75;;;3.33;;
7426;SDS011;3755;59.316;18.092;2023-05-10T09:41:16;9.68;;;3.70;;
7426;SDS011;3755;59.316;18.092;2023-05-10T09:43:45;8.93;;;3.30;;
7426;SDS011;3755;59.316;18.092;2023-05-10T09:46:13;9.45;;;3.38;;
7426;SDS011;3755;59.316;18.092;2023-05-10T09:48:41;5.78;;;3.03;;
7426;SDS011;3755;59.316;18.092;2023-05-10T09:51:10;7.88;;;3.58;;
7426;SDS011;3755;59.316;18.092;2023-05-10T09:53:45;9.98;;;3.80;;
7426;SDS011;3755;59.316;18.092;2023-05-10T09:56:12;10.45;;;3.17;;
7426;SDS011;3755;59.316;18.092;2023-05-10T09:58:41;7.82;;;3.28;;
7426;SDS011;3755;59.316;18.092;2023-05-10T10:01:10;4.93;;;3.42;;
7426;SDS011;3755;59.316;18.092;2023-05-10T10:03:41;10.32;;;4.10;;
7426;SDS011;3755;59.316;18.092;2023-05-10T10:06:09;7.72;;;3.20;;
7426;SDS011;3755;59.316;18.092;2023-05-10T10:08:37;4.97;;;3.22;;
7426;SDS011;3755;59.316;18.092;2023-05-10T10:11:05;5.07;;;3.22;;
7426;SDS011;3755;59.316;18.092;2023-05-10T10:13:33;10.15;;;2.80;;
7426;SDS011;3755;59.316;18.092;2023-05-10T10:16:02;8.68;;;3.33;;
7426;SDS011;3755;59.316;18.092;2023-05-10T10:18:30;8.80;;;3.47;;
7426;SDS011;3755;59.316;18.092;2023-05-10T10:20:57;12.63;;;3.50;;
7426;SDS011;3755;59.316;18.092;2023-05-10T10:23:26;6.70;;;3.08;;
7426;SDS011;3755;59.316;18.092;2023-05-10T10:25:54;7.38;;;3.22;;
7426;SDS011;3755;59.316;18.092;2023-05-10T10:28:24;9.02;;;3.53;;
7426;SDS011;3755;59.316;18.092;2023-05-10T10:31:21;11.63;;;4.25;;
7426;SDS011;3755;59.316;18.092;2023-05-10T10:34:00;10.10;;;3.90;;
7426;SDS011;3755;59.316;18.092;2023-05-10T10:36:31;6.80;;;2.92;;
7426;SDS011;3755;59.316;18.092;2023-05-10T10:39:05;8.88;;;3.75;;
7426;SDS011;3755;59.316;18.092;2023-05-10T10:41:40;7.43;;;3.60;;
7426;SDS011;3755;59.316;18.092;2023-05-10T10:44:25;9.10;;;3.95;;
7426;SDS011;3755;59.316;18.092;2023-05-10T10:47:05;5.30;;;2.67;;
7426;SDS011;3755;59.316;18.092;2023-05-10T10:50:04;8.77;;;3.05;;
7426;SDS011;3755;59.316;18.092;2023-05-10T10:52:33;5.10;;;3.50;;
7426;SDS011;3755;59.316;18.092;2023-05-10T10:55:02;12.30;;;3.88;;
7426;SDS011;3755;59.316;18.092;2023-05-10T10:57:32;9.93;;;3.38;;
7426;SDS011;3755;59.316;18.092;2023-05-10T11:00:18;5.15;;;3.30;;
7426;SDS011;3755;59.316;18.092;2023-05-10T11:02:57;8.75;;;3.78;;
7426;SDS011;3755;59.316;18.092;2023-05-10T11:05:32;6.28;;;3.40;;
7426;SDS011;3755;59.316;18.092;2023-05-10T11:08:12;8.30;;;3.55;;
7426;SDS011;3755;59.316;18.092;2023-05-10T11:10:50;6.20;;;2.83;;
7426;SDS011;3755;59.316;18.092;2023-05-10T11:13:29;5.72;;;3.40;;
7426;SDS011;3755;59.316;18.092;2023-05-10T11:15:57;12.68;;;4.30;;
7426;SDS011;3755;59.316;18.092;2023-05-10T11:18:28;7.25;;;3.20;;
7426;SDS011;3755;59.316;18.092;2023-05-10T11:20:58;13.07;;;3.33;;
7426;SDS011;3755;59.316;18.092;2023-05-10T11:23:31;6.22;;;3.28;;
7426;SDS011;3755;59.316;18.092;2023-05-10T11:26:00;6.30;;;3.30;;
7426;SDS011;3755;59.316;18.092;2023-05-10T11:28:27;7.75;;;3.33;;
7426;SDS011;3755;59.316;18.092;2023-05-10T11:30:55;6.47;;;3.60;;
7426;SDS011;3755;59.316;18.092;2023-05-10T11:33:23;11.70;;;3.83;;
7426;SDS011;3755;59.316;18.092;2023-05-10T11:35:52;5.85;;;2.83;;
7426;SDS011;3755;59.316;18.092;2023-05-10T11:38:19;7.22;;;3.22;;
7426;SDS011;3755;59.316;18.092;2023-05-10T11:40:46;7.85;;;3.05;;
7426;SDS011;3755;59.316;18.092;2023-05-10T11:43:18;10.18;;;3.35;;
7426;SDS011;3755;59.316;18.092;2023-05-10T11:45:49;6.00;;;3.10;;
7426;SDS011;3755;59.316;18.092;2023-05-10T11:48:16;8.57;;;3.22;;
7426;SDS011;3755;59.316;18.092;2023-05-10T11:50:47;8.23;;;3.40;;
7426;SDS011;3755;59.316;18.092;2023-05-10T11:53:16;8.55;;;2.88;;
7426;SDS011;3755;59.316;18.092;2023-05-10T11:55:43;13.00;;;4.97;;
7426;SDS011;3755;59.316;18.092;2023-05-10T11:58:10;7.03;;;3.70;;
7426;SDS011;3755;59.316;18.092;2023-05-10T12:00:38;5.80;;;3.08;;
7426;SDS011;3755;59.316;18.092;2023-05-10T12:03:05;8.35;;;3.67;;
7426;SDS011;3755;59.316;18.092;2023-05-10T12:05:33;8.63;;;3.30;;
7426;SDS011;3755;59.316;18.092;2023-05-10T12:08:13;6.03;;;3.35;;
7426;SDS011;3755;59.316;18.092;2023-05-10T12:10:42;11.07;;;3.65;;
7426;SDS011;3755;59.316;18.092;2023-05-10T12:13:13;8.15;;;3.38;;
7426;SDS011;3755;59.316;18.092;2023-05-10T12:15:41;5.90;;;2.95;;
7426;SDS011;3755;59.316;18.092;2023-05-10T12:18:09;6.93;;;3.00;;
7426;SDS011;3755;59.316;18.092;2023-05-10T12:20:37;6.68;;;2.92;;
7426;SDS011;3755;59.316;18.092;2023-05-10T12:23:05;10.25;;;3.65;;
7426;SDS011;3755;59.316;18.092;2023-05-10T12:25:35;8.93;;;3.60;;
7426;SDS011;3755;59.316;18.092;2023-05-10T12:28:05;12.05;;;3.85;;
7426;SDS011;3755;59.316;18.092;2023-05-10T12:30:35;13.75;;;3.78;;
7426;SDS011;3755;59.316;18.092;2023-05-10T12:33:06;8.77;;;3.08;;
7426;SDS011;3755;59.316;18.092;2023-05-10T12:35:43;8.82;;;3.63;;
7426;SDS011;3755;59.316;18.092;2023-05-10T12:38:27;7.20;;;3.40;;
7426;SDS011;3755;59.316;18.092;2023-05-10T12:40:56;13.15;;;3.63;;
7426;SDS011;3755;59.316;18.092;2023-05-10T12:43:26;8.27;;;3.08;;
7426;SDS011;3755;59.316;18.092;2023-05-10T12:45:53;6.43;;;2.60;;
7426;SDS011;3755;59.316;18.092;2023-05-10T12:48:21;5.37;;;3.30;;
7426;SDS011;3755;59.316;18.092;2023-05-10T12:50:48;8.88;;;3.45;;
7426;SDS011;3755;59.316;18.092;2023-05-10T12:53:15;12.68;;;2.83;;
7426;SDS011;3755;59.316;18.092;2023-05-10T12:55:44;11.27;;;2.80;;
7426;SDS011;3755;59.316;18.092;2023-05-10T12:58:11;9.77;;;3.35;;
7426;SDS011;3755;59.316;18.092;2023-05-10T13:00:40;9.95;;;2.97;;
7426;SDS011;3755;59.316;18.092;2023-05-10T13:03:08;7.25;;;3.25;;
7426;SDS011;3755;59.316;18.092;2023-05-10T13:05:36;5.22;;;2.50;;
7426;SDS011;3755;59.316;18.092;2023-05-10T13:08:03;10.85;;;3.50;;
7426;SDS011;3755;59.316;18.092;2023-05-10T13:10:31;9.43;;;2.80;;
7426;SDS011;3755;59.316;18.092;2023-05-10T13:12:59;5.82;;;2.60;;
7426;SDS011;3755;59.316;18.092;2023-05-10T13:15:26;11.55;;;4.00;;
7426;SDS011;3755;59.316;18.092;2023-05-10T13:17:55;7.80;;;2.50;;
7426;SDS011;3755;59.316;18.092;2023-05-10T13:20:22;5.75;;;2.90;;
7426;SDS011;3755;59.316;18.092;2023-05-10T13:22:49;6.38;;;2.78;;
7426;SDS011;3755;59.316;18.092;2023-05-10T13:25:17;6.32;;;2.83;;
7426;SDS011;3755;59.316;18.092;2023-05-10T13:27:44;8.00;;;3.13;;
7426;SDS011;3755;59.316;18.092;2023-05-10T13:30:11;12.77;;;3.78;;
7426;SDS011;3755;59.316;18.092;2023-05-10T13:32:39;5.88;;;2.50;;
7426;SDS011;3755;59.316;18.092;2023-05-10T13:35:08;7.43;;;2.40;;
7426;SDS011;3755;59.316;18.092;2023-05-10T13:37:35;5.45;;;2.70;;
7426;SDS011;3755;59.316;18.092;2023-05-10T13:40:03;7.20;;;2.40;;
7426;SDS011;3755;59.316;18.092;2023-05-10T13:42:31;5.00;;;2.35;;
7426;SDS011;3755;59.316;18.092;2023-05-10T13:44:59;7.30;;;2.80;;
7426;SDS011;3755;59.316;18.092;2023-05-10T13:47:27;7.70;;;2.78;;
7426;SDS011;3755;59.316;18.092;2023-05-10T13:49:54;8.60;;;2.95;;
7426;SDS011;3755;59.316;18.092;2023-05-10T13:52:24;5.53;;;2.70;;
7426;SDS011;3755;59.316;18.092;2023-05-10T13:54:51;9.40;;;3.03;;
7426;SDS011;3755;59.316;18.092;2023-05-10T13:57:20;7.03;;;2.70;;
7426;SDS011;3755;59.316;18.092;2023-05-10T13:59:48;8.43;;;2.70;;
7426;SDS011;3755;59.316;18.092;2023-05-10T14:02:15;9.65;;;2.78;;
7426;SDS011;3755;59.316;18.092;2023-05-10T14:04:42;5.13;;;3.05;;
7426;SDS011;3755;59.316;18.092;2023-05-10T14:07:10;6.80;;;2.60;;
7426;SDS011;3755;59.316;18.092;2023-05-10T14:09:38;2.40;;;2.20;;
7426;SDS011;3755;59.316;18.092;2023-05-10T14:12:06;6.78;;;2.30;;
7426;SDS011;3755;59.316;18.092;2023-05-10T14:14:33;5.90;;;2.50;;
7426;SDS011;3755;59.316;18.092;2023-05-10T14:17:00;6.88;;;2.55;;
7426;SDS011;3755;59.316;18.092;2023-05-10T14:19:28;5.65;;;2.50;;
7426;SDS011;3755;59.316;18.092;2023-05-10T14:21:57;3.72;;;2.20;;
7426;SDS011;3755;59.316;18.092;2023-05-10T14:24:25;5.32;;;2.40;;
7426;SDS011;3755;59.316;18.092;2023-05-10T14:26:53;6.15;;;2.22;;
7426;SDS011;3755;59.316;18.092;2023-05-10T14:29:21;12.23;;;2.88;;
7426;SDS011;3755;59.316;18.092;2023-05-10T14:31:49;16.67;;;3.38;;
7426;SDS011;3755;59.316;18.092;2023-05-10T14:34:16;14.60;;;2.60;;
7426;SDS011;3755;59.316;18.092;2023-05-10T14:36:44;8.43;;;2.38;;
7426;SDS011;3755;59.316;18.092;2023-05-10T14:39:11;5.05;;;2.20;;
7426;SDS011;3755;59.316;18.092;2023-05-10T14:41:39;3.08;;;2.33;;
7426;SDS011;3755;59.316;18.092;2023-05-10T14:44:09;8.30;;;2.97;;
7426;SDS011;3755;59.316;18.092;2023-05-10T14:46:36;5.13;;;2.10;;
7426;SDS011;3755;59.316;18.092;2023-05-10T14:49:04;4.85;;;2.78;;
7426;SDS011;3755;59.316;18.092;2023-05-10T14:51:32;7.68;;;2.45;;
7426;SDS011;3755;59.316;18.092;2023-05-10T14:54:02;7.65;;;2.88;;
7426;SDS011;3755;59.316;18.092;2023-05-10T14:56:29;6.15;;;2.35;;
7426;SDS011;3755;59.316;18.092;2023-05-10T14:58:57;9.30;;;2.47;;
7426;SDS011;3755;59.316;18.092;2023-05-10T15:01:27;4.97;;;2.70;;
7426;SDS011;3755;59.316;18.092;2023-05-10T15:03:54;4.78;;;2.22;;
7426;SDS011;3755;59.316;18.092;2023-05-10T15:06:23;4.55;;;2.08;;
7426;SDS011;3755;59.316;18.092;2023-05-10T15:08:56;5.43;;;2.00;;
7426;SDS011;3755;59.316;18.092;2023-05-10T15:11:24;3.95;;;2.58;;